Time;durP1;ratioP1;P1;durP2;ratioP2;P2;SDS_P1;SDS_P2;PMS_P1;PMS_P2;Temp;Humidity;BMP_temperature;BMP_pressure;BME280_temperature;BME280_humidity;BME280_pressure;Samples;Min_cycle;Max_cycle;Signal;HPM_P1;HPM_P2
2024/01/17 00:00:13;;;;;;;49.08;21.30;;;;;;;-4.42;74.33;97074.91;4914347;29;20160;-72
2024/01/17 00:02:38;;;;;;;28.35;13.35;;;;;;;-4.33;74.83;97100.09;4926614;29;20118;-72
2024/01/17 00:05:04;;;;;;;15.20;9.38;;;;;;;-4.42;75.10;97096.75;4912648;29;20036;-72
2024/01/17 00:07:30;;;;;;;17.45;8.10;;;;;;;-4.45;75.53;97083.13;4912891;29;20039;-72
2024/01/17 00:09:55;;;;;;;16.30;9.18;;;;;;;-4.45;76.20;97078.72;4911877;29;20149;-72
2024/01/17 00:12:20;;;;;;;17.02;11.25;;;;;;;-4.25;75.57;97071.94;4926951;29;20024;-72
2024/01/17 00:14:46;;;;;;;19.55;10.43;;;;;;;-4.43;76.01;97058.31;4907716;29;20388;-72
2024/01/17 00:17:12;;;;;;;12.70;7.75;;;;;;;-4.41;76.36;97071.31;4926143;29;20032;-72
2024/01/17 00:19:37;;;;;;;13.98;10.10;;;;;;;-4.34;76.57;97057.25;4914144;29;20477;-72
2024/01/17 00:22:03;;;;;;;15.45;8.35;;;;;;;-4.36;75.97;97066.31;4909839;29;20036;-72
2024/01/17 00:24:28;;;;;;;15.55;10.73;;;;;;;-4.15;76.04;97063.78;4910850;29;20056;-72
2024/01/17 00:26:53;;;;;;;15.23;8.13;;;;;;;-4.25;75.89;97061.41;4907808;29;20028;-72
2024/01/17 00:29:19;;;;;;;17.10;10.82;;;;;;;-4.12;76.53;97055.53;4909805;29;20048;-72
2024/01/17 00:31:44;;;;;;;19.27;10.43;;;;;;;-4.25;76.07;97040.41;4914593;29;20028;-72
2024/01/17 00:34:10;;;;;;;17.58;11.07;;;;;;;-4.16;76.23;97050.84;4913022;29;20140;-73
2024/01/17 00:36:35;;;;;;;16.85;10.10;;;;;;;-4.21;76.28;97057.47;4899947;29;20118;-72
2024/01/17 00:39:01;;;;;;;18.15;9.65;;;;;;;-4.28;75.92;97050.47;4912222;29;20032;-72
2024/01/17 00:41:26;;;;;;;20.58;12.00;;;;;;;-4.25;76.34;97045.66;4928591;29;20056;-73
2024/01/17 00:43:51;;;;;;;19.20;12.00;;;;;;;-4.28;76.36;97051.28;4915792;29;20040;-72
2024/01/17 00:46:17;;;;;;;19.50;14.10;;;;;;;-4.35;75.62;97012.78;4910751;29;20373;-72
2024/01/17 00:48:43;;;;;;;22.67;11.98;;;;;;;-4.26;75.84;97038.78;4906470;29;20150;-72
2024/01/17 00:51:08;;;;;;;21.92;10.40;;;;;;;-4.54;75.87;97013.28;4909338;29;20040;-72
2024/01/17 00:53:34;;;;;;;20.70;10.70;;;;;;;-4.44;75.76;97029.63;4913378;29;20176;-72
2024/01/17 00:55:59;;;;;;;16.42;10.15;;;;;;;-4.48;75.87;97018.63;4909712;29;20067;-72
2024/01/17 00:58:24;;;;;;;19.15;10.88;;;;;;;-4.45;76.33;97004.34;4914665;29;20040;-72
2024/01/17 01:00:50;;;;;;;24.40;16.00;;;;;;;-4.23;76.10;97006.91;4923887;29;20039;-72
2024/01/17 01:03:15;;;;;;;22.70;14.48;;;;;;;-4.40;75.73;96989.66;4915475;29;20044;-72
2024/01/17 01:05:41;;;;;;;27.02;16.10;;;;;;;-4.25;75.56;97003.59;4916460;29;20067;-72
2024/01/17 01:08:06;;;;;;;25.02;11.07;;;;;;;-4.43;75.68;96997.91;4905419;29;20111;-72
2024/01/17 01:10:32;;;;;;;18.88;11.15;;;;;;;-4.43;76.04;97000.53;4912929;29;20028;-72
2024/01/17 01:12:57;;;;;;;15.10;9.80;;;;;;;-4.48;76.32;96989.75;4910770;29;20088;-72
2024/01/17 01:15:23;;;;;;;18.40;10.20;;;;;;;-4.49;76.42;96990.75;4927921;29;20036;-72
2024/01/17 01:17:48;;;;;;;15.93;11.40;;;;;;;-4.46;76.40;96987.78;4909256;29;20051;-72
2024/01/17 01:20:15;;;;;;;18.02;12.10;;;;;;;-4.30;76.29;97000.72;4912694;29;20032;-73
2024/01/17 01:22:40;;;;;;;18.52;9.82;;;;;;;-4.56;76.85;96987.22;4915214;29;20135;-72
2024/01/17 01:25:06;;;;;;;17.92;10.02;;;;;;;-4.68;76.77;96965.00;4910789;29;20135;-71
2024/01/17 01:27:31;;;;;;;21.42;11.52;;;;;;;-4.49;76.60;96979.44;4914769;29;20036;-71
2024/01/17 01:29:57;;;;;;;18.75;12.07;;;;;;;-4.44;76.63;96982.34;4914944;29;20504;-71
2024/01/17 01:32:22;;;;;;;16.95;10.15;;;;;;;-5.18;77.10;96868.56;4908957;29;20042;-71
2024/01/17 01:34:48;;;;;;;20.35;12.90;;;;;;;-4.44;76.54;96970.03;4908746;29;20515;-71
2024/01/17 01:37:13;;;;;;;17.80;11.63;;;;;;;-4.30;77.00;96971.84;4908169;29;20042;-71
2024/01/17 01:39:38;;;;;;;20.23;11.45;;;;;;;-4.37;76.86;96963.03;4914106;29;20107;-71
2024/01/17 01:42:04;;;;;;;19.40;12.20;;;;;;;-4.45;77.28;96950.00;4906518;29;20453;-71
2024/01/17 01:44:29;;;;;;;24.92;11.27;;;;;;;-4.42;77.24;96965.41;4913501;29;20127;-72
2024/01/17 01:46:55;;;;;;;21.73;11.80;;;;;;;-4.35;77.00;96968.94;4904067;29;20488;-72
2024/01/17 01:49:21;;;;;;;20.70;12.93;;;;;;;-4.32;77.21;96959.88;4914705;29;20028;-71
2024/01/17 01:51:48;;;;;;;17.08;14.25;;;;;;;-4.12;77.03;96970.63;4917199;29;20448;-72
2024/01/17 01:54:14;;;;;;;17.67;13.25;;;;;;;-4.10;76.60;96968.63;4915750;29;20028;-72
2024/01/17 01:56:40;;;;;;;17.90;12.60;;;;;;;-4.16;76.87;96961.47;4921593;29;20127;-71
2024/01/17 01:59:06;;;;;;;17.35;13.40;;;;;;;-4.24;76.40;96957.94;4925156;29;20031;-72
2024/01/17 02:01:33;;;;;;;19.75;11.23;;;;;;;-4.25;76.94;96956.31;4926990;29;20563;-72
2024/01/17 02:03:59;;;;;;;20.10;12.05;;;;;;;-4.34;76.27;96941.63;4924186;29;20064;-72
2024/01/17 02:06:25;;;;;;;18.73;14.93;;;;;;;-4.37;76.75;96944.66;4926208;29;20119;-72
2024/01/17 02:08:55;;;;;;;20.92;13.90;;;;;;;-4.27;76.70;96963.56;4908466;29;20067;-73
2024/01/17 02:11:20;;;;;;;19.02;13.85;;;;;;;-4.44;76.55;96933.25;4909388;29;20060;-72
2024/01/17 02:13:46;;;;;;;19.98;13.20;;;;;;;-4.37;76.41;96952.53;4907777;29;20451;-71
2024/01/17 02:16:12;;;;;;;19.45;11.25;;;;;;;-4.46;76.64;96953.63;4921372;29;20456;-71
2024/01/17 02:18:37;;;;;;;14.77;9.73;;;;;;;-4.54;76.54;96953.72;4928619;29;20039;-72
2024/01/17 02:21:03;;;;;;;21.20;11.95;;;;;;;-4.48;76.50;96944.31;4920202;29;20033;-71
2024/01/17 02:23:28;;;;;;;20.83;14.02;;;;;;;-4.40;76.12;96942.38;4914284;29;20480;-72
2024/01/17 02:25:56;;;;;;;19.63;13.02;;;;;;;-4.57;76.17;96924.34;4907877;29;20531;-72
2024/01/17 02:28:21;;;;;;;17.60;13.05;;;;;;;-4.48;76.58;96931.94;4913741;29;20480;-70
2024/01/17 02:30:47;;;;;;;16.52;9.95;;;;;;;-4.66;76.62;96928.88;4923089;29;20075;-70
2024/01/17 02:33:16;;;;;;;18.90;12.75;;;;;;;-4.61;76.09;96910.78;4925633;29;20694;-72
2024/01/17 02:35:41;;;;;;;21.92;12.80;;;;;;;-4.60;75.83;96898.47;4921498;29;20079;-71
2024/01/17 02:38:07;;;;;;;19.23;13.90;;;;;;;-4.52;76.24;96907.06;4924831;29;20059;-70
2024/01/17 02:40:32;;;;;;;17.85;12.18;;;;;;;-4.60;75.66;96904.53;4904571;29;20044;-70
2024/01/17 02:42:58;;;;;;;15.57;12.60;;;;;;;-4.56;75.61;96897.91;4908629;29;20062;-70
2024/01/17 02:45:23;;;;;;;19.25;13.40;;;;;;;-4.56;75.53;96895.28;4913396;29;20048;-70
2024/01/17 02:47:48;;;;;;;18.75;13.05;;;;;;;-4.60;75.85;96898.47;4907670;29;20043;-70
2024/01/17 02:50:15;;;;;;;17.88;10.43;;;;;;;-4.74;75.96;96886.16;4906370;29;20104;-70
2024/01/17 02:52:44;;;;;;;18.45;13.93;;;;;;;-4.61;76.42;96887.16;4928341;29;20068;-70
2024/01/17 02:55:11;;;;;;;18.15;13.20;;;;;;;-4.74;75.90;96876.47;4912499;29;20519;-71
2024/01/17 02:57:39;;;;;;;19.00;13.63;;;;;;;-4.67;75.55;96882.63;4910003;29;20035;-70
2024/01/17 03:00:06;;;;;;;18.17;12.52;;;;;;;-4.79;75.54;96872.75;4907537;29;20044;-70
2024/01/17 03:02:32;;;;;;;21.65;12.48;;;;;;;-4.78;75.80;96880.44;4910606;29;20028;-71
2024/01/17 03:04:57;;;;;;;20.35;12.95;;;;;;;-4.77;75.99;96868.13;4908580;29;20038;-71
2024/01/17 03:07:22;;;;;;;18.05;12.65;;;;;;;-4.85;76.02;96858.53;4924593;29;20506;-70
2024/01/17 03:09:48;;;;;;;19.48;14.10;;;;;;;-4.76;75.75;96864.53;4905232;29;20269;-70
2024/01/17 03:12:13;;;;;;;16.98;15.07;;;;;;;-4.72;75.82;96853.47;4914340;29;20032;-71
2024/01/17 03:14:39;;;;;;;20.77;13.70;;;;;;;-4.84;76.02;96849.66;4916846;29;20040;-71
2024/01/17 03:17:04;;;;;;;19.10;12.93;;;;;;;-4.84;76.29;96851.47;4918354;29;20035;-70
2024/01/17 03:19:29;;;;;;;18.27;12.35;;;;;;;-4.89;75.59;96846.78;4901174;29;20167;-70
2024/01/17 03:21:55;;;;;;;19.15;14.25;;;;;;;-4.79;75.78;96847.31;4925099;29;20028;-70
2024/01/17 03:24:20;;;;;;;16.73;13.85;;;;;;;-4.78;75.22;96846.31;4914988;29;20476;-70
2024/01/17 03:26:45;;;;;;;21.02;14.27;;;;;;;-4.83;75.64;96829.50;4917346;29;20031;-70
2024/01/17 03:29:11;;;;;;;20.52;12.15;;;;;;;-4.96;75.51;96840.63;4913765;29;20036;-70
2024/01/17 03:31:36;;;;;;;19.63;15.68;;;;;;;-4.74;76.00;96825.78;4923170;29;20072;-70
2024/01/17 03:34:02;;;;;;;18.52;15.95;;;;;;;-4.72;75.38;96824.59;4911754;29;20077;-70
2024/01/17 03:36:27;;;;;;;20.33;16.55;;;;;;;-4.72;75.88;96811.47;4915816;29;20047;-71
2024/01/17 03:38:54;;;;;;;24.58;17.40;;;;;;;-4.74;75.87;96797.72;4931746;29;20119;-71
2024/01/17 03:41:19;;;;;;;22.33;16.85;;;;;;;-4.60;75.85;96815.25;4928829;29;20036;-71
2024/01/17 03:43:44;;;;;;;20.20;13.93;;;;;;;-4.66;75.89;96804.66;4910084;29;20047;-72
2024/01/17 03:46:10;;;;;;;20.42;16.45;;;;;;;-4.57;76.44;96791.22;4912062;29;20020;-71
2024/01/17 03:48:35;;;;;;;22.75;17.17;;;;;;;-4.52;76.25;96775.72;4914970;29;20496;-71
2024/01/17 03:51:00;;;;;;;20.42;15.60;;;;;;;-4.60;75.82;96767.16;4912336;29;20040;-72
2024/01/17 03:53:26;;;;;;;20.33;14.88;;;;;;;-4.72;76.17;96737.94;4928135;29;20492;-71
2024/01/17 03:55:51;;;;;;;21.17;14.80;;;;;;;-4.58;76.03;96765.16;4910124;29;20039;-72
2024/01/17 03:58:17;;;;;;;20.00;12.90;;;;;;;-4.67;76.85;96751.34;4925829;29;20032;-71
2024/01/17 04:00:42;;;;;;;20.45;16.05;;;;;;;-4.55;76.85;96734.06;4910399;29;20028;-71
2024/01/17 04:03:12;;;;;;;19.88;14.88;;;;;;;-4.53;76.85;96737.34;4912283;29;20042;-69
2024/01/17 04:05:38;;;;;;;20.45;16.10;;;;;;;-4.42;77.15;96755.25;4910062;29;20035;-71
2024/01/17 04:08:03;;;;;;;23.10;14.25;;;;;;;-4.61;77.04;96734.84;4922065;29;20029;-71
2024/01/17 04:10:29;;;;;;;21.67;12.45;;;;;;;-4.80;77.19;96722.28;4914755;29;20560;-71
2024/01/17 04:12:54;;;;;;;23.52;14.65;;;;;;;-4.57;77.45;96730.00;4912936;29;20047;-70
2024/01/17 04:15:19;;;;;;;17.40;15.05;;;;;;;-4.55;77.31;96723.56;4929039;29;20115;-71
2024/01/17 04:17:45;;;;;;;25.65;14.68;;;;;;;-4.54;77.36;96719.13;4909906;29;20035;-70
2024/01/17 04:20:11;;;;;;;19.17;16.73;;;;;;;-4.43;77.28;96713.38;4927935;29;20499;-71
2024/01/17 04:22:36;;;;;;;19.73;16.83;;;;;;;-4.42;77.58;96692.19;4907925;29;20036;-71
2024/01/17 04:25:02;;;;;;;21.33;12.52;;;;;;;-4.63;77.24;96700.06;4912131;29;20480;-71
2024/01/17 04:27:28;;;;;;;20.75;15.90;;;;;;;-4.49;77.70;96690.50;4912173;29;20168;-71
2024/01/17 04:29:53;;;;;;;20.05;15.07;;;;;;;-4.48;77.85;96686.88;4925000;29;20031;-69
2024/01/17 04:32:19;;;;;;;20.52;15.57;;;;;;;-4.43;78.05;96690.56;4909111;29;20052;-71
2024/01/17 04:34:44;;;;;;;24.02;16.80;;;;;;;-4.40;77.83;96695.44;4909388;29;20036;-72
2024/01/17 04:37:10;;;;;;;22.25;12.90;;;;;;;-4.59;77.44;96664.56;4908474;29;20040;-71
2024/01/17 04:39:35;;;;;;;20.48;17.10;;;;;;;-4.42;77.41;96681.69;4915492;29;20078;-71
2024/01/17 04:42:01;;;;;;;20.90;15.73;;;;;;;-4.47;78.00;96672.75;4921625;29;20493;-71
2024/01/17 04:44:30;;;;;;;19.23;16.45;;;;;;;-4.37;77.36;96668.81;4898529;29;20039;-72
2024/01/17 04:46:56;;;;;;;21.70;15.18;;;;;;;-4.40;77.75;96668.34;4911574;29;20036;-70
2024/01/17 04:49:25;;;;;;;23.65;16.95;;;;;;;-4.29;77.13;96665.22;4913097;29;20380;-70
2024/01/17 04:51:52;;;;;;;22.85;13.32;;;;;;;-4.44;77.47;96673.19;4915226;29;20087;-69
2024/01/17 04:54:17;;;;;;;21.55;17.77;;;;;;;-4.45;77.59;96634.78;4926086;29;20077;-70
2024/01/17 04:56:42;;;;;;;22.27;17.70;;;;;;;-4.28;77.44;96661.59;4907202;29;20082;-69
2024/01/17 04:59:08;;;;;;;20.83;16.20;;;;;;;-4.32;77.22;96657.72;4910653;29;20032;-69
2024/01/17 05:01:33;;;;;;;21.17;13.27;;;;;;;-4.48;77.29;96650.91;4912905;29;20036;-70
2024/01/17 05:03:59;;;;;;;24.05;14.30;;;;;;;-4.49;78.45;96649.31;4909008;29;20444;-70
2024/01/17 05:06:24;;;;;;;22.88;14.20;;;;;;;-4.65;77.72;96623.31;4916345;29;20040;-70
2024/01/17 05:08:50;;;;;;;22.60;17.55;;;;;;;-4.40;77.91;96637.66;4916146;29;20028;-70
2024/01/17 05:11:22;;;;;;;21.20;13.48;;;;;;;-4.47;78.06;96634.16;4907565;29;20044;-72
2024/01/17 05:13:47;;;;;;;21.30;13.73;;;;;;;-4.56;77.55;96622.16;4914676;29;20040;-71
2024/01/17 05:16:12;;;;;;;22.58;16.63;;;;;;;-4.50;77.67;96616.16;4912128;29;20035;-70
2024/01/17 05:18:39;;;;;;;22.27;13.35;;;;;;;-4.63;77.73;96600.28;4914418;29;20036;-70
2024/01/17 05:21:05;;;;;;;21.95;14.68;;;;;;;-4.50;78.00;96603.00;4909448;29;20160;-71
2024/01/17 05:23:30;;;;;;;25.83;13.82;;;;;;;-4.62;77.49;96601.09;4897762;29;20127;-70
2024/01/17 05:25:56;;;;;;;22.13;18.38;;;;;;;-4.43;77.21;96596.00;4909441;29;20028;-70
2024/01/17 05:28:22;;;;;;;26.23;17.70;;;;;;;-4.45;77.53;96592.75;4915170;29;20051;-70
2024/01/17 05:30:47;;;;;;;21.52;17.02;;;;;;;-4.49;77.12;96583.63;4908545;29;20456;-71
2024/01/17 05:33:12;;;;;;;22.85;16.33;;;;;;;-4.76;77.33;96547.66;4910043;29;20400;-70
2024/01/17 05:35:38;;;;;;;23.10;16.88;;;;;;;-4.56;77.15;96563.56;4929380;23;20041;-75
2024/01/17 05:38:03;;;;;;;21.92;16.58;;;;;;;-4.44;76.90;96573.38;4897261;29;20033;-73
2024/01/17 05:40:29;;;;;;;23.65;15.70;;;;;;;-4.56;76.96;96574.91;4888802;29;20020;-73
2024/01/17 05:42:54;;;;;;;22.90;18.73;;;;;;;-4.43;77.15;96567.09;4897319;29;20040;-72
2024/01/17 05:45:20;;;;;;;22.17;18.45;;;;;;;-4.50;76.70;96553.13;4908201;29;20025;-73
2024/01/17 05:47:45;;;;;;;23.33;15.30;;;;;;;-4.52;76.58;96555.13;4912421;29;20130;-71
2024/01/17 05:50:11;;;;;;;21.23;13.68;;;;;;;-4.60;76.80;96552.66;4889535;29;20081;-74
2024/01/17 05:52:48;;;;;;;21.85;18.90;;;;;;;-4.39;76.68;96552.56;4890864;29;20112;-73
2024/01/17 05:55:15;;;;;;;24.27;19.25;;;;;;;-4.36;77.00;96548.75;4898782;29;20425;-74
2024/01/17 05:57:43;;;;;;;22.95;17.48;;;;;;;-4.49;76.87;96527.66;4910877;29;20037;-73
2024/01/17 06:00:10;;;;;;;23.65;18.27;;;;;;;-4.39;77.13;96539.44;4897074;29;20039;-74
2024/01/17 06:02:37;;;;;;;26.98;15.73;;;;;;;-4.48;76.75;96527.47;4895688;29;20035;-74
2024/01/17 06:05:03;;;;;;;23.73;15.07;;;;;;;-4.41;77.03;96530.94;4892521;29;20515;-74
2024/01/17 06:07:28;;;;;;;24.73;16.52;;;;;;;-4.45;76.92;96523.66;4877455;29;20079;-73
2024/01/17 06:09:54;;;;;;;26.92;20.13;;;;;;;-4.25;76.89;96530.63;4894265;29;20037;-73
2024/01/17 06:12:19;;;;;;;34.65;27.20;;;;;;;-4.31;76.76;96505.16;4907438;29;20441;-72
2024/01/17 06:14:45;;;;;;;33.22;26.00;;;;;;;-4.16;76.94;96509.47;4893042;29;20044;-73
2024/01/17 06:17:11;;;;;;;37.50;20.23;;;;;;;-4.30;76.79;96506.78;4888689;29;20028;-73
2024/01/17 06:19:36;;;;;;;34.28;20.45;;;;;;;-4.18;77.54;96505.22;4895736;29;20292;-73
2024/01/17 06:22:01;;;;;;;31.65;20.73;;;;;;;-4.14;77.46;96507.47;4888641;29;20059;-73
2024/01/17 06:24:27;;;;;;;35.78;20.50;;;;;;;-4.20;77.13;96506.41;4894352;29;20067;-73
2024/01/17 06:26:52;;;;;;;33.85;22.10;;;;;;;-4.15;77.61;96490.09;4895664;29;20031;-72
2024/01/17 06:29:17;;;;;;;34.80;20.63;;;;;;;-4.08;77.23;96491.72;4888390;29;20045;-72
2024/01/17 06:31:43;;;;;;;31.83;23.02;;;;;;;-4.05;77.22;96485.25;4899620;29;20107;-71
2024/01/17 06:34:08;;;;;;;32.13;18.30;;;;;;;-4.12;77.58;96492.31;4903137;29;20044;-72
2024/01/17 06:36:34;;;;;;;27.98;18.58;;;;;;;-4.13;77.64;96474.94;4894410;29;20067;-72
2024/01/17 06:38:59;;;;;;;30.20;23.50;;;;;;;-4.04;77.42;96463.25;4890430;29;20188;-73
2024/01/17 06:41:25;;;;;;;26.30;17.67;;;;;;;-4.22;77.55;96456.69;4893568;29;20333;-72
2024/01/17 06:43:50;;;;;;;30.38;21.33;;;;;;;-3.96;77.62;96465.69;4904224;29;20064;-73
2024/01/17 06:46:16;;;;;;;28.42;16.70;;;;;;;-4.08;77.50;96467.28;4907167;29;20036;-72
2024/01/17 06:48:41;;;;;;;27.23;18.42;;;;;;;-4.03;78.16;96470.09;4887690;29;20044;-73
2024/01/17 06:51:06;;;;;;;33.85;21.65;;;;;;;-4.10;78.13;96458.75;4893975;29;20032;-73
2024/01/17 06:53:32;;;;;;;40.92;22.92;;;;;;;-4.06;77.74;96466.06;4912918;29;20040;-72
2024/01/17 06:55:57;;;;;;;39.30;23.00;;;;;;;-4.03;77.89;96462.22;4894534;29;20512;-73
2024/01/17 06:58:23;;;;;;;35.72;20.75;;;;;;;-4.03;78.52;96454.34;4894801;29;20104;-72
2024/01/17 07:00:48;;;;;;;33.78;20.02;;;;;;;-4.07;78.48;96459.19;4914638;29;20394;-72
2024/01/17 07:03:14;;;;;;;31.75;23.02;;;;;;;-3.95;78.23;96436.59;4897171;29;20484;-72
2024/01/17 07:05:40;;;;;;;39.33;22.73;;;;;;;-4.10;77.97;96432.47;4898997;29;20031;-72
2024/01/17 07:08:06;;;;;;;43.25;32.78;;;;;;;-4.09;77.85;96397.31;4913636;29;20050;-71
2024/01/17 07:10:32;;;;;;;38.13;23.35;;;;;;;-3.93;78.44;96441.66;4898964;29;20040;-72
2024/01/17 07:12:57;;;;;;;32.92;25.60;;;;;;;-3.86;78.39;96443.28;4888169;29;20044;-73
2024/01/17 07:15:22;;;;;;;31.50;20.40;;;;;;;-4.03;78.38;96430.69;4890819;29;20427;-73
2024/01/17 07:17:48;;;;;;;28.00;24.00;;;;;;;-3.82;78.17;96441.06;4905206;29;20423;-73
2024/01/17 07:20:13;;;;;;;32.10;24.50;;;;;;;-3.90;77.97;96422.84;4898784;29;20020;-73
2024/01/17 07:22:42;;;;;;;35.85;22.63;;;;;;;-3.94;77.54;96421.59;4903387;29;20448;-73
2024/01/17 07:25:08;;;;;;;33.85;29.13;;;;;;;-3.78;78.13;96437.06;4906315;29;20481;-73
2024/01/17 07:27:34;;;;;;;31.83;24.20;;;;;;;-3.85;77.95;96430.97;4879889;29;20456;-73
2024/01/17 07:29:59;;;;;;;34.38;20.73;;;;;;;-3.91;77.97;96424.66;4895504;29;20036;-73
2024/01/17 07:32:24;;;;;;;33.72;22.75;;;;;;;-3.91;77.90;96415.97;4883017;29;20044;-73
2024/01/17 07:34:50;;;;;;;46.42;31.65;;;;;;;-3.76;77.94;96424.53;4903338;29;20380;-73
2024/01/17 07:37:15;;;;;;;41.20;27.10;;;;;;;-3.82;78.27;96425.28;4916977;29;20048;-73
2024/01/17 07:39:41;;;;;;;42.60;31.05;;;;;;;-3.83;78.35;96386.88;4897303;29;20075;-74
2024/01/17 07:42:06;;;;;;;41.55;27.63;;;;;;;-3.78;78.46;96402.88;4914531;29;20036;-73
2024/01/17 07:44:33;;;;;;;37.95;32.50;;;;;;;-3.56;77.61;96394.59;4893568;29;20052;-69
2024/01/17 07:46:58;;;;;;;43.90;27.83;;;;;;;-3.64;77.76;96394.00;4899666;29;20119;-73
2024/01/17 07:49:24;;;;;;;40.63;27.42;;;;;;;-3.61;78.56;96385.69;4905737;29;20104;-73
2024/01/17 07:51:49;;;;;;;38.90;27.52;;;;;;;-3.47;78.48;96384.69;4904441;29;20488;-73
2024/01/17 07:54:16;;;;;;;35.60;29.85;;;;;;;-3.38;78.14;96362.44;4902261;29;20028;-73
2024/01/17 07:56:41;;;;;;;42.28;24.02;;;;;;;-3.38;77.88;96370.31;4866529;29;20865;-73
2024/01/17 07:59:07;;;;;;;34.63;21.92;;;;;;;-3.33;77.87;96367.91;4923464;29;20086;-72
2024/01/17 08:01:32;;;;;;;34.35;22.95;;;;;;;-3.26;77.81;96355.56;4882845;29;20108;-73
2024/01/17 08:03:57;;;;;;;32.60;21.05;;;;;;;-3.17;77.70;96356.16;4883368;29;20028;-73
2024/01/17 08:06:23;;;;;;;30.10;21.33;;;;;;;-3.12;77.91;96344.00;4923066;29;20045;-73
2024/01/17 08:08:48;;;;;;;31.50;20.40;;;;;;;-3.08;78.13;96341.78;4896313;29;20450;-73
2024/01/17 08:11:14;;;;;;;28.05;23.25;;;;;;;-2.94;78.28;96333.63;4921631;29;20047;-73
2024/01/17 08:13:39;;;;;;;29.45;24.20;;;;;;;-2.80;77.84;96337.03;4897503;29;20060;-73
2024/01/17 08:16:05;;;;;;;30.17;20.17;;;;;;;-2.92;77.98;96323.69;4908605;29;20099;-72
2024/01/17 08:18:31;;;;;;;30.42;23.13;;;;;;;-2.92;78.40;96312.38;4900495;29;20507;-73
2024/01/17 08:20:57;;;;;;;31.33;20.52;;;;;;;-2.96;77.97;96322.50;4892715;29;20060;-73
2024/01/17 08:23:22;;;;;;;34.15;20.45;;;;;;;-3.00;77.89;96313.41;4888618;29;20076;-73
2024/01/17 08:25:48;;;;;;;30.20;24.10;;;;;;;-2.97;78.19;96288.50;4895206;29;20037;-73
2024/01/17 08:28:13;;;;;;;33.40;21.45;;;;;;;-2.88;77.85;96314.41;4894174;29;20552;-73
2024/01/17 08:30:38;;;;;;;31.75;20.05;;;;;;;-2.80;78.07;96305.44;4916835;29;20043;-73
2024/01/17 08:33:04;;;;;;;34.85;22.08;;;;;;;-2.88;77.52;96295.97;4886198;29;20493;-73
2024/01/17 08:35:30;;;;;;;48.80;37.10;;;;;;;-2.68;77.98;96292.47;4897354;29;20063;-73
2024/01/17 08:37:56;;;;;;;47.13;33.33;;;;;;;-2.78;77.81;96271.00;4905213;29;20032;-73
2024/01/17 08:40:21;;;;;;;34.88;24.90;;;;;;;-2.65;77.84;96270.94;4921725;29;20503;-72
2024/01/17 08:42:47;;;;;;;32.70;25.55;;;;;;;-2.49;77.89;96275.75;4903961;29;20028;-73
2024/01/17 08:45:15;;;;;;;30.02;21.60;;;;;;;-2.57;77.51;96257.56;4905098;29;20036;-73
2024/01/17 08:47:42;;;;;;;29.98;20.85;;;;;;;-2.48;77.70;96256.28;4881189;29;20029;-73
2024/01/17 08:50:08;;;;;;;31.80;20.25;;;;;;;-2.55;77.42;96229.16;4869485;29;20044;-73
2024/01/17 08:52:34;;;;;;;32.25;22.80;;;;;;;-2.32;77.66;96248.69;4894292;29;20031;-73
2024/01/17 08:55:01;;;;;;;28.05;24.63;;;;;;;-2.14;77.29;96245.34;4885788;29;20041;-73
2024/01/17 08:57:27;;;;;;;28.08;20.00;;;;;;;-2.18;77.23;96233.59;4906821;29;20029;-73
2024/01/17 08:59:52;;;;;;;31.55;20.65;;;;;;;-2.12;77.41;96224.81;4895383;29;20040;-73
2024/01/17 09:02:18;;;;;;;29.48;20.00;;;;;;;-2.14;77.45;96216.34;4897221;29;20052;-73
2024/01/17 09:04:43;;;;;;;27.83;24.75;;;;;;;-1.90;77.42;96227.94;4896950;29;20044;-74
2024/01/17 09:07:08;;;;;;;37.88;25.73;;;;;;;-2.02;77.60;96219.91;4881475;29;20053;-73
2024/01/17 09:09:34;;;;;;;32.22;24.08;;;;;;;-2.07;77.78;96206.53;4912801;29;20040;-73
2024/01/17 09:11:59;;;;;;;34.97;22.65;;;;;;;-2.08;77.83;96203.09;4898507;29;20091;-73
2024/01/17 09:14:25;;;;;;;33.80;24.42;;;;;;;-1.93;78.19;96218.59;4879353;29;20034;-73
2024/01/17 09:16:53;;;;;;;30.90;21.63;;;;;;;-1.87;78.22;96222.22;4909968;29;20032;-73
2024/01/17 09:19:22;;;;;;;31.80;26.77;;;;;;;-1.70;78.19;96213.53;4901027;29;20544;-73
2024/01/17 09:21:49;;;;;;;34.67;23.77;;;;;;;-1.75;78.40;96216.03;4911184;29;20103;-73
2024/01/17 09:24:14;;;;;;;36.80;25.65;;;;;;;-1.74;78.34;96207.09;4897662;29;20535;-72
2024/01/17 09:26:40;;;;;;;41.60;29.58;;;;;;;-1.62;78.57;96210.66;4904782;29;20024;-73
2024/01/17 09:29:05;;;;;;;33.47;24.00;;;;;;;-1.63;78.53;96203.75;4896442;29;20040;-73
2024/01/17 09:31:30;;;;;;;36.03;23.15;;;;;;;-1.59;79.05;96199.63;4897587;29;20445;-73
2024/01/17 09:33:56;;;;;;;39.60;23.77;;;;;;;-1.67;78.87;96176.19;4897489;29;20051;-74
2024/01/17 09:36:21;;;;;;;32.03;22.75;;;;;;;-1.54;78.78;96178.69;4894462;29;20540;-73
2024/01/17 09:38:47;;;;;;;31.42;23.45;;;;;;;-1.43;78.82;96188.53;4879874;29;20032;-72
2024/01/17 09:41:12;;;;;;;31.85;22.52;;;;;;;-1.47;78.74;96150.38;4896178;29;20508;-73
2024/01/17 09:43:37;;;;;;;31.88;27.05;;;;;;;-1.07;78.67;96176.34;4896123;29;20036;-73
2024/01/17 09:46:04;;;;;;;35.63;23.15;;;;;;;-1.19;78.81;96155.16;4897084;29;20032;-72
2024/01/17 09:48:30;;;;;;;37.95;24.75;;;;;;;-1.17;78.84;96149.66;4897222;29;20436;-73
2024/01/17 09:50:57;;;;;;;36.35;24.98;;;;;;;-1.09;78.44;96152.00;4897277;29;20063;-72
2024/01/17 09:53:25;;;;;;;36.50;26.08;;;;;;;-0.98;79.28;96169.75;4878508;29;20058;-73
2024/01/17 09:55:52;;;;;;;40.92;26.92;;;;;;;-1.02;79.26;96156.19;4903820;29;20497;-73
2024/01/17 09:58:19;;;;;;;38.22;31.20;;;;;;;-0.92;78.84;96147.72;4900785;29;20040;-73
2024/01/17 10:00:45;;;;;;;37.67;31.17;;;;;;;-0.98;78.44;96120.34;4906907;29;20083;-73
2024/01/17 10:03:14;;;;;;;39.95;32.45;;;;;;;-0.69;78.60;96147.81;4898425;29;20037;-74
2024/01/17 10:05:40;;;;;;;35.50;31.52;;;;;;;-0.68;78.83;96144.16;4889799;29;20028;-73
2024/01/17 10:08:06;;;;;;;37.10;26.95;;;;;;;-0.80;79.10;96130.09;4914996;29;20139;-73
2024/01/17 10:10:31;;;;;;;38.92;32.80;;;;;;;-0.77;79.16;96113.81;4898013;29;20032;-73
2024/01/17 10:12:57;;;;;;;39.65;27.90;;;;;;;-0.74;79.03;96118.63;4903452;29;20100;-73
2024/01/17 10:15:23;;;;;;;41.50;27.75;;;;;;;-0.72;78.94;96111.28;4902844;29;20036;-73
2024/01/17 10:17:48;;;;;;;40.50;34.35;;;;;;;-0.61;79.08;96107.06;4898700;29;20040;-72
2024/01/17 10:20:14;;;;;;;42.03;34.53;;;;;;;-0.71;79.03;96081.19;4884756;29;20060;-73
2024/01/17 10:22:41;;;;;;;43.83;30.13;;;;;;;-0.65;79.66;96093.47;4891308;29;20114;-73
2024/01/17 10:25:08;;;;;;;46.03;37.78;;;;;;;-0.60;79.42;96069.00;4900576;29;20477;-73
2024/01/17 10:27:34;;;;;;;43.13;35.90;;;;;;;-0.60;79.39;96040.75;4912426;29;20067;-72
2024/01/17 10:30:00;;;;;;;41.58;29.85;;;;;;;-0.54;80.03;96060.19;4897008;29;20035;-73
2024/01/17 10:32:27;;;;;;;46.15;36.30;;;;;;;-0.51;80.24;96044.66;4903608;29;20405;-73
2024/01/17 10:34:52;;;;;;;44.33;30.17;;;;;;;-0.51;80.84;96051.81;4879676;29;20451;-73
2024/01/17 10:37:18;;;;;;;40.05;33.60;;;;;;;-0.35;80.00;96030.78;4909538;29;20040;-73
2024/01/17 10:39:44;;;;;;;43.75;35.85;;;;;;;-0.26;79.88;96021.50;4901489;29;20115;-72
2024/01/17 10:42:20;;;;;;;40.90;29.85;;;;;;;-0.27;80.69;96019.06;4894533;29;20127;-73
2024/01/17 10:44:45;;;;;;;46.75;37.17;;;;;;;-0.18;81.94;96020.31;4872743;29;20047;-73
2024/01/17 10:47:10;;;;;;;47.35;37.47;;;;;;;-0.33;82.04;95994.38;4904731;29;20032;-73
2024/01/17 10:49:36;;;;;;;47.92;38.40;;;;;;;-0.36;81.98;95994.81;4900364;29;20530;-72
2024/01/17 10:52:09;;;;;;;47.75;39.47;;;;;;;-0.17;82.77;96001.59;4895118;29;20033;-73
2024/01/17 10:54:49;;;;;;;52.67;41.70;;;;;;;-0.28;82.86;95989.16;4910293;29;20041;-73
2024/01/17 10:57:15;;;;;;;59.45;48.47;;;;;;;-0.16;82.79;95989.97;4901021;29;20044;-73
2024/01/17 10:59:50;;;;;;;59.58;45.25;;;;;;;-0.17;82.76;95983.09;4886359;29;20029;-73
2024/01/17 11:02:18;;;;;;;55.55;35.70;;;;;;;-0.30;83.69;95972.72;4906187;29;20138;-73
2024/01/17 11:04:45;;;;;;;62.88;46.45;;;;;;;-0.15;84.09;95970.44;4895071;29;20400;-73
2024/01/17 11:07:12;;;;;;;72.13;50.78;;;;;;;-0.13;83.76;95943.75;4892972;29;20033;-73
2024/01/17 11:09:39;;;;;;;69.32;47.88;;;;;;;-0.04;83.79;95948.44;4882671;29;20067;-73